Tropical Cyclones
[Index]
Main Index Home Page Stock Weather Photos Extreme Storms Discussion Storm News and Storm Chasing Reports Tropical Cyclones / Hurricanes / Typhoons Weather Data and Links Wild Fires / Bushfires Weather Observation Techniques Weather Picture Catalogue Tornado Pictures and Reports Stock Video Footage and DVDs for sale
Season 1970-1971 Tropical Cyclone CARMEN Track Map
Season 1970-1971 Summaries: [BoM-AU] [JTWC-AU] [JTWC-SIO] [JTWC-SPAC] [JTWC-SH]
<<- Previous TC | BoM 1970-1971 Season | Next TC ->>

click for intensity scale information  Lat/long Grid: Show Hide

 Date Labels: Show Hide

Bureau of Meteorology Tropical Cyclone Data

Name: CARMEN
Number: 465 / 197071_02

20 Nov 1970 00:00 UTC to 26 Nov 1970 00:00 UTC

    date/time    lat    long    hPa   cat  kts
1970-11-20 00    8.0    92.0   1002                     
1970-11-20 03    8.5    91.7   1002                     
1970-11-20 06    9.0    91.4   1002                     
1970-11-20 09    9.5    91.1   1002                     
1970-11-20 12   10.0    90.8   1001                     
1970-11-20 15   10.5    90.6   1001                     
1970-11-20 18   11.0    90.4   1001                     
1970-11-20 21   11.5    90.2   1001                     
1970-11-21 00   12.0    90.0   1001                     
1970-11-21 03   12.2    90.0   1001                     
1970-11-21 06   12.5    90.1   1001                     
1970-11-21 09   12.7    90.2   1000                     
1970-11-21 12   13.0    90.3   1000                     
1970-11-21 15   13.3    90.4   1000                     
1970-11-21 18   13.5    90.5   1000                     
1970-11-21 21   13.7    90.6    999                     
1970-11-22 00   13.9    90.8    998                     
1970-11-22 03   14.2    90.9    997                     
1970-11-22 06   14.5    91.0    996                     
1970-11-22 09   14.8    91.1    995    1                
1970-11-22 12   15.0    91.1    994    1                
1970-11-22 15   15.2    91.2    993    1                
1970-11-22 18   15.4    91.2    992    1                
1970-11-22 21   15.6    91.2    991    1                
1970-11-23 00   15.8    91.2    990    1                
1970-11-23 03   16.1    91.1    990    1                
1970-11-23 06   16.4    91.0    992    1                
1970-11-23 09   16.7    90.9    994    1                
1970-11-23 12   16.9    90.8    996                     
1970-11-23 15   17.1    90.7    998                     
1970-11-23 18   17.2    90.5    999                     
1970-11-23 21   17.4    90.3   1001                     
1970-11-24 00   17.5    90.1   1002                     
1970-11-24 03   17.7    89.7   1003                     
1970-11-24 06   17.9    89.1   1003                     
1970-11-24 09   18.1    88.6   1004                     
1970-11-24 12   18.3    88.0   1004                     
1970-11-24 15   18.4    87.6   1005                     
1970-11-24 18   18.5    87.1   1005                     
1970-11-24 21   18.6    86.6   1006                     
1970-11-25 00   18.6    86.1   1006                     
1970-11-25 03   18.6    85.6   1006                     
1970-11-25 06   18.6    85.1   1006                     
1970-11-25 09   18.5    84.6   1006                     
1970-11-25 12   18.5    84.0   1006                     
1970-11-25 15   18.4    83.3   1006                     
1970-11-25 18   18.3    82.5   1006                     
1970-11-25 21   18.2    81.3   1006                     
1970-11-26 00   18.0    81.0   1006                     
Winds are 10-min average.

Tropical cyclone tracks developed by Michael Bath using data from the Bureau of Meteorology and Google Maps.


[Australian Severe Weather index] [Copyright Notice] [Email Contacts] [Search This Site] [Privacy Policy]
Document: tropical_cyclone_carmen.htm Updated: 30 May 2013